You are not logged in, Click here to log in
機場資訊:ENSB Welcome to Taiwan Airways 台灣虛擬航空
ICAO: ENSB Country: Longyearbyen
Latitude: 78.2461 Longitude: 15.4656
Total Arrivals: 0 Total Departures: 2
Latest Arrival: (-). Latest Departure: FS25 (ENSB-ENTC)ALAN. LIU
Scenery: http://en.wikipedia.org/wiki/R%C3%B8st_Airport
METAR : ENSB 141820Z 12006KT 9999 BKN040 M07/M10 Q1019 RMK WIND 1400FT 13003KT

Svalbard Airport, Longyear